createdAt,value
2023-01-15T00:02:20.488Z,95.77
2023-01-15T00:04:52.738Z,127.87
2023-01-15T00:07:21.764Z,168.80
2023-01-15T00:09:51.978Z,208.03
2023-01-15T00:12:20.919Z,149.57
2023-01-15T00:14:50.541Z,213.90
2023-01-15T00:17:19.373Z,170.30
2023-01-15T00:19:48.788Z,187.13
2023-01-15T00:22:19.307Z,156.43
2023-01-15T00:25:05.713Z,103.37
2023-01-15T00:27:40.551Z,55.87
2023-01-15T00:30:13.856Z,49.70
2023-01-15T00:32:43.718Z,53.40
2023-01-15T00:35:15.077Z,69.97
2023-01-15T00:37:45.873Z,98.80
2023-01-15T00:40:15.785Z,52.77
2023-01-15T00:42:54.185Z,46.10
2023-01-15T00:45:24.394Z,45.87
2023-01-15T00:47:53.702Z,43.70
2023-01-15T00:50:23.183Z,44.43
2023-01-15T00:52:53.503Z,44.37
2023-01-15T00:55:22.755Z,45.13
2023-01-15T00:57:51.655Z,45.40
2023-01-15T01:00:21.061Z,46.07
2023-01-15T01:02:49.935Z,45.93
2023-01-15T01:05:19.059Z,44.07
2023-01-15T01:07:47.951Z,43.63
2023-01-15T01:10:18.649Z,44.40
2023-01-15T01:12:52.001Z,44.93
2023-01-15T01:15:21.484Z,44.90
2023-01-15T01:17:50.598Z,45.03
2023-01-15T01:20:20.852Z,44.57
2023-01-15T01:22:51.031Z,44.30
2023-01-15T01:25:21.836Z,44.70
2023-01-15T01:27:51.304Z,43.80
2023-01-15T01:30:20.344Z,43.87
2023-01-15T01:32:49.319Z,44.43
2023-01-15T01:35:18.359Z,43.30
2023-01-15T01:37:51.709Z,42.80
2023-01-15T01:40:22.326Z,44.10
2023-01-15T01:42:51.875Z,45.03
2023-01-15T01:45:26.064Z,44.33
2023-01-15T01:47:59.351Z,45.03
2023-01-15T01:50:31.248Z,45.53
2023-01-15T01:53:04.129Z,46.43
2023-01-15T01:55:36.420Z,46.20
2023-01-15T01:58:26.635Z,46.70
2023-01-15T02:00:55.792Z,46.50
2023-01-15T02:03:29.083Z,49.07
2023-01-15T02:06:00.443Z,46.53
2023-01-15T02:08:32.696Z,47.40
2023-01-15T02:11:23.587Z,47.33
2023-01-15T02:14:01.594Z,47.77
2023-01-15T02:16:38.232Z,45.73
2023-01-15T02:19:19.756Z,46.43
2023-01-15T02:22:20.022Z,48.13
2023-01-15T02:25:02.179Z,49.70
2023-01-15T02:27:33.141Z,51.03
2023-01-15T02:30:07.964Z,51.37
2023-01-15T02:32:52.172Z,51.97
2023-01-15T02:35:26.920Z,53.83
2023-01-15T02:38:00.761Z,52.07
2023-01-15T02:40:31.189Z,52.50
2023-01-15T02:43:01.674Z,55.10
2023-01-15T02:45:34.619Z,56.03
2023-01-15T02:48:12.553Z,56.17
2023-01-15T02:50:45.945Z,58.50
2023-01-15T02:53:19.504Z,59.47
2023-01-15T02:55:51.034Z,56.40
2023-01-15T02:58:30.491Z,57.53
2023-01-15T03:01:05.769Z,57.57
2023-01-15T03:03:43.174Z,57.47
2023-01-15T03:06:16.254Z,55.97
2023-01-15T03:08:45.552Z,57.03
2023-01-15T03:11:16.348Z,55.10
2023-01-15T03:13:57.578Z,55.37
2023-01-15T03:16:37.394Z,55.13
2023-01-15T03:19:25.230Z,54.53
2023-01-15T03:21:59.717Z,53.73
2023-01-15T03:24:38.981Z,54.93
2023-01-15T03:27:08.550Z,54.83
2023-01-15T03:29:45.141Z,56.37
2023-01-15T03:32:14.334Z,57.53
2023-01-15T03:34:45.875Z,57.73
2023-01-15T03:37:20.712Z,58.60
2023-01-15T03:39:50.564Z,57.50
2023-01-15T03:42:39.852Z,57.17
2023-01-15T03:45:16.996Z,55.67
2023-01-15T03:47:57.536Z,54.67
2023-01-15T03:50:33.691Z,52.87
2023-01-15T03:53:12.231Z,52.93
2023-01-15T03:55:55.346Z,52.27
2023-01-15T03:58:29.874Z,52.03
2023-01-15T04:01:04.876Z,52.47
2023-01-15T04:03:36.324Z,53.20
2023-01-15T04:06:08.224Z,54.07
2023-01-15T04:08:42.051Z,54.13
2023-01-15T04:11:11.272Z,53.03
2023-01-15T04:13:58.786Z,55.07
2023-01-15T04:16:50.880Z,54.23
2023-01-15T04:19:20.009Z,56.47
2023-01-15T04:21:59.415Z,56.13
2023-01-15T04:24:28.569Z,56.47
2023-01-15T04:26:57.547Z,56.53
2023-01-15T04:29:26.555Z,55.77
2023-01-15T04:31:58.057Z,56.23
2023-01-15T04:34:28.036Z,54.77
2023-01-15T04:36:57.862Z,54.80
2023-01-15T04:39:26.718Z,56.37
2023-01-15T04:42:12.866Z,55.07
2023-01-15T04:44:41.968Z,53.97
2023-01-15T04:47:12.748Z,55.73
2023-01-15T04:49:41.808Z,55.67
2023-01-15T04:52:10.885Z,56.37
2023-01-15T04:54:40.320Z,56.07
2023-01-15T04:57:09.637Z,55.23
2023-01-15T04:59:38.759Z,56.87
2023-01-15T05:02:07.752Z,57.33
2023-01-15T05:04:38.392Z,58.27
2023-01-15T05:07:07.784Z,58.37
2023-01-15T05:09:36.846Z,58.70
2023-01-15T05:12:06.365Z,57.83
2023-01-15T05:14:35.307Z,59.77
2023-01-15T05:17:04.168Z,58.10
2023-01-15T05:19:33.317Z,57.93
2023-01-15T05:22:03.840Z,59.03
2023-01-15T05:24:32.926Z,57.80
2023-01-15T05:27:02.171Z,56.10
2023-01-15T05:29:31.074Z,54.80
2023-01-15T05:32:00.008Z,55.10
2023-01-15T05:34:29.038Z,54.87
2023-01-15T05:36:57.909Z,52.60
2023-01-15T05:39:28.446Z,51.00
2023-01-15T05:41:57.462Z,51.17
2023-01-15T05:44:27.669Z,52.77
2023-01-15T05:46:58.901Z,52.30
2023-01-15T05:49:30.395Z,51.73
2023-01-15T05:52:00.959Z,51.77
2023-01-15T05:54:51.497Z,53.27
2023-01-15T05:57:20.606Z,52.13
2023-01-15T05:59:50.602Z,53.93
2023-01-15T06:02:19.649Z,51.83
2023-01-15T06:04:48.724Z,52.30
2023-01-15T06:07:18.463Z,51.53
2023-01-15T06:09:47.626Z,52.27
2023-01-15T06:12:18.026Z,52.60
2023-01-15T06:14:46.982Z,54.50
2023-01-15T06:17:16.391Z,56.20
2023-01-15T06:19:45.410Z,54.03
2023-01-15T06:22:14.407Z,54.13
2023-01-15T06:24:43.631Z,55.70
2023-01-15T06:27:12.565Z,55.37
2023-01-15T06:29:42.981Z,54.87
2023-01-15T06:32:11.975Z,54.37
2023-01-15T06:34:43.495Z,55.97
2023-01-15T06:37:12.429Z,58.13
2023-01-15T06:39:41.367Z,55.23
2023-01-15T06:42:28.294Z,53.23
2023-01-15T06:45:24.486Z,53.87
2023-01-15T06:47:53.415Z,54.43
2023-01-15T06:50:22.389Z,50.77
2023-01-15T06:52:51.268Z,50.17
2023-01-15T06:55:20.393Z,49.73
2023-01-15T06:57:49.524Z,50.00
2023-01-15T07:00:21.089Z,48.40
2023-01-15T07:02:50.346Z,48.03
2023-01-15T07:05:19.460Z,46.87
2023-01-15T07:07:48.435Z,48.23
2023-01-15T07:10:17.734Z,48.50
2023-01-15T07:12:46.691Z,45.10
2023-01-15T07:15:16.697Z,45.40
2023-01-15T07:17:47.319Z,44.23
2023-01-15T07:20:35.123Z,44.27
2023-01-15T07:23:04.065Z,37.27
2023-01-15T07:25:33.203Z,36.60
2023-01-15T07:28:02.235Z,36.77
2023-01-15T07:30:31.191Z,37.90
2023-01-15T07:33:01.592Z,38.57
2023-01-15T07:35:31.326Z,38.83
2023-01-15T07:38:00.277Z,38.53
2023-01-15T07:40:29.279Z,39.53
2023-01-15T07:43:16.019Z,44.07
2023-01-15T07:46:02.659Z,66.23
2023-01-15T07:48:50.560Z,53.10
2023-01-15T07:51:19.657Z,44.60
2023-01-15T07:53:48.670Z,39.30
2023-01-15T07:56:17.595Z,43.47
2023-01-15T07:58:50.439Z,37.27
2023-01-15T08:01:19.648Z,43.07
2023-01-15T08:03:50.060Z,42.47
2023-01-15T08:06:19.127Z,37.17
2023-01-15T08:08:48.407Z,46.70
2023-01-15T08:11:34.548Z,54.70
2023-01-15T08:14:20.959Z,62.17
2023-01-15T08:16:50.249Z,48.10
2023-01-15T08:19:21.584Z,40.37
2023-01-15T08:21:50.672Z,47.13
2023-01-15T08:24:19.718Z,69.47
2023-01-15T08:26:48.712Z,67.17
2023-01-15T08:29:18.140Z,49.90
2023-01-15T08:31:47.238Z,46.47
2023-01-15T08:34:16.518Z,36.00
2023-01-15T08:36:47.140Z,39.30
2023-01-15T08:39:16.270Z,38.77
2023-01-15T08:41:45.280Z,32.93
2023-01-15T08:44:15.346Z,56.63
2023-01-15T08:46:45.216Z,40.40
2023-01-15T08:49:14.337Z,51.53
2023-01-15T08:51:43.737Z,48.83
2023-01-15T08:54:14.603Z,45.60
2023-01-15T08:56:45.191Z,51.47
2023-01-15T08:59:14.708Z,36.37
2023-01-15T09:01:44.887Z,38.03
2023-01-15T09:04:16.712Z,35.20
2023-01-15T09:06:46.340Z,31.83
2023-01-15T09:09:19.103Z,32.73
2023-01-15T09:11:48.146Z,32.87
2023-01-15T09:14:56.764Z,32.17
2023-01-15T09:17:06.792Z,35.03
2023-01-15T09:19:36.073Z,43.17
2023-01-15T09:22:05.164Z,37.57
2023-01-15T09:24:35.635Z,46.70
2023-01-15T09:27:05.013Z,41.50
2023-01-15T09:29:34.314Z,35.43
2023-01-15T09:32:03.860Z,52.30
2023-01-15T09:34:33.031Z,45.13
2023-01-15T09:37:02.109Z,40.23
2023-01-15T09:39:31.159Z,46.07
2023-01-15T09:42:18.728Z,35.40
2023-01-15T09:45:11.923Z,39.07
2023-01-15T09:47:48.217Z,32.83
2023-01-15T09:50:26.296Z,32.57
2023-01-15T09:53:25.244Z,28.13
2023-01-15T09:55:56.228Z,28.90
2023-01-15T09:58:35.264Z,30.03
2023-01-15T10:01:05.577Z,28.47
2023-01-15T10:03:41.271Z,27.50
2023-01-15T10:06:17.237Z,26.20
2023-01-15T10:08:48.536Z,26.07
2023-01-15T10:11:50.849Z,25.97
2023-01-15T10:14:41.128Z,26.43
2023-01-15T10:17:22.173Z,28.13
2023-01-15T10:19:51.556Z,26.23
2023-01-15T10:22:46.460Z,24.57
2023-01-15T10:25:19.114Z,24.40
2023-01-15T10:27:52.541Z,22.97
2023-01-15T10:30:34.086Z,22.50
2023-01-15T10:33:16.011Z,24.93
2023-01-15T10:35:53.560Z,29.77
2023-01-15T10:38:29.088Z,21.53
2023-01-15T10:41:22.700Z,22.40
2023-01-15T10:43:57.410Z,23.73
2023-01-15T10:46:33.737Z,38.87
2023-01-15T10:49:07.172Z,24.63
2023-01-15T10:51:43.473Z,23.80
2023-01-15T10:54:18.742Z,23.67
2023-01-15T10:56:56.594Z,31.93
2023-01-15T10:59:36.136Z,33.07
2023-01-15T11:02:24.979Z,29.10
2023-01-15T11:04:55.033Z,28.10
2023-01-15T11:07:30.740Z,32.13
2023-01-15T11:10:03.948Z,31.33
2023-01-15T11:12:50.406Z,27.33
2023-01-15T11:15:42.114Z,25.50
2023-01-15T11:18:49.698Z,25.90
2023-01-15T11:21:21.515Z,26.27
2023-01-15T11:23:51.082Z,27.40
2023-01-15T11:26:23.846Z,26.47
2023-01-15T11:28:53.949Z,27.43
2023-01-15T11:31:23.180Z,25.27
2023-01-15T11:34:01.096Z,28.10
2023-01-15T11:36:49.734Z,29.73
2023-01-15T11:39:31.157Z,27.93
2023-01-15T11:42:25.028Z,26.97
2023-01-15T11:45:13.376Z,25.00
2023-01-15T11:48:10.146Z,26.73
2023-01-15T11:50:49.522Z,27.80
2023-01-15T11:53:21.915Z,29.00
2023-01-15T11:55:57.456Z,26.83
2023-01-15T11:58:27.460Z,27.90
2023-01-15T12:00:57.993Z,27.30
2023-01-15T12:03:30.955Z,25.40
2023-01-15T12:06:06.189Z,26.07
2023-01-15T12:08:52.556Z,27.10
2023-01-15T12:11:52.187Z,30.47
2023-01-15T12:14:56.206Z,29.40
2023-01-15T12:17:42.696Z,33.27
2023-01-15T12:20:24.931Z,34.33
2023-01-15T12:23:09.048Z,32.00
2023-01-15T12:25:45.587Z,33.60
2023-01-15T12:28:19.928Z,35.10
2023-01-15T12:30:57.480Z,33.33
2023-01-15T12:33:39.750Z,34.33
2023-01-15T12:36:13.576Z,36.17
2023-01-15T12:38:56.070Z,34.80
2023-01-15T12:41:48.449Z,35.07
2023-01-15T12:44:53.007Z,34.23
2023-01-15T12:47:26.943Z,34.77
2023-01-15T12:50:01.566Z,34.43
2023-01-15T12:52:36.725Z,34.10
2023-01-15T12:55:16.145Z,33.93
2023-01-15T12:57:48.641Z,35.10
2023-01-15T13:00:21.548Z,35.17
2023-01-15T13:03:06.879Z,36.43
2023-01-15T13:05:41.088Z,37.23
2023-01-15T13:08:17.218Z,34.20
2023-01-15T13:10:50.615Z,31.67
2023-01-15T13:13:23.140Z,32.37
2023-01-15T13:16:08.366Z,32.40
2023-01-15T13:18:48.859Z,33.20
2023-01-15T13:21:20.575Z,32.83
2023-01-15T13:24:16.499Z,34.13
2023-01-15T13:27:14.193Z,35.47
2023-01-15T13:30:01.776Z,33.50
2023-01-15T13:32:34.799Z,32.80
2023-01-15T13:35:11.005Z,32.70
2023-01-15T13:37:45.357Z,32.20
2023-01-15T13:40:24.333Z,32.30
2023-01-15T13:42:55.639Z,34.37
2023-01-15T13:45:33.852Z,35.50
2023-01-15T13:48:08.412Z,36.23
2023-01-15T13:50:42.243Z,97.73
2023-01-15T13:53:24.717Z,74.17
2023-01-15T13:55:56.824Z,46.80
2023-01-15T13:58:29.578Z,42.10
2023-01-15T14:01:10.028Z,39.20
2023-01-15T14:03:40.308Z,54.33
2023-01-15T14:06:11.117Z,41.83
2023-01-15T14:08:42.639Z,45.57
2023-01-15T14:11:39.815Z,48.77
2023-01-15T14:14:39.218Z,47.67
2023-01-15T14:17:29.612Z,52.93
2023-01-15T14:20:28.529Z,57.47
2023-01-15T14:23:10.914Z,72.83
2023-01-15T14:25:56.226Z,65.43
2023-01-15T14:28:40.443Z,167.70
2023-01-15T14:31:44.384Z,108.43
2023-01-15T14:34:17.937Z,116.67
2023-01-15T14:37:08.143Z,118.83
2023-01-15T14:39:44.263Z,122.10
2023-01-15T14:42:35.595Z,126.43
2023-01-15T14:45:08.032Z,131.70
2023-01-15T14:47:46.670Z,131.30
2023-01-15T14:50:34.966Z,133.43
2023-01-15T14:53:16.015Z,64.90
2023-01-15T14:55:50.275Z,41.23
2023-01-15T14:58:32.133Z,39.97
2023-01-15T15:01:06.253Z,35.37
2023-01-15T15:03:39.581Z,32.73
2023-01-15T15:06:13.553Z,30.00
2023-01-15T15:08:44.536Z,29.73
2023-01-15T15:11:35.775Z,29.47
2023-01-15T15:14:08.005Z,32.83
2023-01-15T15:16:44.582Z,36.13
2023-01-15T15:19:23.225Z,37.90
2023-01-15T15:21:53.820Z,32.57
2023-01-15T15:24:27.847Z,34.07
2023-01-15T15:26:57.026Z,39.43
2023-01-15T15:29:25.918Z,53.17
2023-01-15T15:31:58.482Z,61.17
2023-01-15T15:34:32.358Z,56.83
2023-01-15T15:37:05.242Z,62.57
2023-01-15T15:39:46.919Z,67.13
2023-01-15T15:42:39.230Z,63.87
2023-01-15T15:45:37.263Z,100.73
2023-01-15T15:48:35.923Z,79.33
2023-01-15T15:51:07.356Z,86.83
2023-01-15T15:54:15.671Z,106.43
2023-01-15T15:56:49.879Z,94.73
2023-01-15T15:59:27.303Z,107.47
2023-01-15T16:01:58.749Z,111.70
2023-01-15T16:04:30.684Z,134.00
2023-01-15T16:07:03.970Z,156.53
2023-01-15T16:09:34.895Z,130.93
2023-01-15T16:12:07.445Z,102.23
2023-01-15T16:14:38.668Z,116.07
2023-01-15T16:17:08.522Z,111.70
2023-01-15T16:19:39.061Z,103.57
2023-01-15T16:22:11.980Z,125.70
2023-01-15T16:24:43.440Z,115.63
2023-01-15T16:27:24.142Z,119.87
2023-01-15T16:29:56.385Z,103.43
2023-01-15T16:32:30.172Z,88.47
2023-01-15T16:35:08.364Z,77.17
2023-01-15T16:37:39.664Z,78.10
2023-01-15T16:40:17.371Z,65.93
2023-01-15T16:42:47.671Z,57.40
2023-01-15T16:45:25.979Z,55.53
2023-01-15T16:48:12.406Z,54.57
2023-01-15T16:50:42.927Z,53.10
2023-01-15T16:53:39.298Z,53.37
2023-01-15T16:56:27.307Z,53.67
2023-01-15T16:58:56.476Z,48.77
2023-01-15T17:01:39.304Z,49.57
2023-01-15T17:04:21.320Z,46.57
2023-01-15T17:07:02.235Z,61.63
2023-01-15T17:09:36.926Z,58.53
2023-01-15T17:12:11.527Z,56.17
2023-01-15T17:15:16.704Z,55.83
2023-01-15T17:17:47.686Z,55.17
2023-01-15T17:20:19.337Z,54.37
2023-01-15T17:22:50.607Z,52.90
2023-01-15T17:25:26.624Z,52.33
2023-01-15T17:27:57.585Z,55.77
2023-01-15T17:30:33.674Z,58.03
2023-01-15T17:33:06.866Z,57.10
2023-01-15T17:35:38.735Z,58.87
2023-01-15T17:38:12.411Z,59.93
2023-01-15T17:40:43.463Z,61.50
2023-01-15T17:43:15.771Z,61.63
2023-01-15T17:45:47.147Z,70.17
2023-01-15T17:48:18.561Z,55.77
2023-01-15T17:50:48.041Z,67.63
2023-01-15T17:53:17.190Z,60.83
2023-01-15T17:56:13.537Z,54.87
2023-01-15T17:59:00.335Z,52.70
2023-01-15T18:01:48.704Z,52.53
2023-01-15T18:04:39.780Z,51.93
2023-01-15T18:07:11.466Z,51.83
2023-01-15T18:09:43.916Z,50.17
2023-01-15T18:12:15.249Z,51.40
2023-01-15T18:14:45.324Z,52.17
2023-01-15T18:17:14.872Z,51.97
2023-01-15T18:19:44.153Z,51.80
2023-01-15T18:22:14.184Z,53.07
2023-01-15T18:24:44.256Z,53.00
2023-01-15T18:27:14.842Z,57.27
2023-01-15T18:30:02.592Z,56.00
2023-01-15T18:32:32.118Z,53.43
2023-01-15T18:35:01.142Z,52.33
2023-01-15T18:37:30.199Z,51.43
2023-01-15T18:39:59.237Z,51.50
2023-01-15T18:42:46.735Z,52.00
2023-01-15T18:45:47.920Z,52.33
2023-01-15T18:48:18.158Z,53.33
2023-01-15T18:50:49.175Z,53.20
2023-01-15T18:53:19.217Z,53.30
2023-01-15T18:55:51.378Z,53.30
2023-01-15T18:58:43.179Z,55.47
2023-01-15T19:01:12.805Z,55.37
2023-01-15T19:03:43.087Z,54.63
2023-01-15T19:06:14.579Z,56.00
2023-01-15T19:08:43.790Z,53.40
2023-01-15T19:11:14.401Z,59.17
2023-01-15T19:14:05.424Z,69.37
2023-01-15T19:16:52.804Z,64.90
2023-01-15T19:19:22.436Z,76.23
2023-01-15T19:22:12.338Z,81.17
2023-01-15T19:24:42.228Z,70.57
2023-01-15T19:27:12.869Z,77.03
2023-01-15T19:29:43.908Z,78.17
2023-01-15T19:32:13.102Z,77.27
2023-01-15T19:34:42.223Z,79.97
2023-01-15T19:37:11.515Z,87.20
2023-01-15T19:39:40.669Z,83.33
2023-01-15T19:42:28.826Z,74.93
2023-01-15T19:45:16.311Z,74.30
2023-01-15T19:48:03.317Z,69.37
2023-01-15T19:50:38.989Z,68.13
2023-01-15T19:53:10.141Z,68.93
2023-01-15T19:55:43.631Z,76.80
2023-01-15T19:58:14.431Z,87.00
2023-01-15T20:00:49.866Z,143.20
2023-01-15T20:03:19.000Z,155.20
2023-01-15T20:05:48.372Z,137.77
2023-01-15T20:08:18.932Z,140.03
2023-01-15T20:10:49.900Z,126.60
2023-01-15T20:13:39.779Z,123.67
2023-01-15T20:16:13.531Z,114.83
2023-01-15T20:18:43.084Z,122.47
2023-01-15T20:21:14.711Z,122.20
2023-01-15T20:23:44.278Z,116.03
2023-01-15T20:26:14.964Z,100.20
2023-01-15T20:28:47.854Z,96.93
2023-01-15T20:31:19.633Z,98.53
2023-01-15T20:33:50.474Z,90.47
2023-01-15T20:36:19.507Z,85.97
2023-01-15T20:38:48.494Z,83.67
2023-01-15T20:41:34.950Z,80.03
2023-01-15T20:44:21.184Z,81.27
2023-01-15T20:46:51.801Z,76.83
2023-01-15T20:49:27.754Z,76.60
2023-01-15T20:51:59.013Z,76.10
2023-01-15T20:54:29.049Z,73.43
2023-01-15T20:56:58.090Z,78.20
2023-01-15T20:59:27.059Z,74.33
2023-01-15T21:01:57.891Z,74.27
2023-01-15T21:04:27.868Z,79.13
2023-01-15T21:06:56.871Z,79.43
2023-01-15T21:09:25.966Z,77.07
2023-01-15T21:11:55.041Z,77.03
2023-01-15T21:14:24.152Z,72.17
2023-01-15T21:16:53.844Z,69.70
2023-01-15T21:19:25.047Z,70.87
2023-01-15T21:21:54.117Z,74.73
2023-01-15T21:24:23.056Z,74.73
2023-01-15T21:26:52.057Z,70.83
2023-01-15T21:29:22.164Z,70.40
2023-01-15T21:31:51.307Z,70.33
2023-01-15T21:34:40.224Z,68.77
2023-01-15T21:37:09.181Z,71.00
2023-01-15T21:39:39.091Z,67.97
2023-01-15T21:42:25.417Z,66.60
2023-01-15T21:44:54.597Z,68.03
2023-01-15T21:47:23.495Z,63.83
2023-01-15T21:49:53.942Z,62.07
2023-01-15T21:52:23.358Z,65.03
2023-01-15T21:54:52.515Z,63.30
2023-01-15T21:57:22.551Z,63.00
2023-01-15T21:59:51.567Z,64.50
2023-01-15T22:02:22.093Z,62.80
2023-01-15T22:04:52.660Z,62.67
2023-01-15T22:07:21.596Z,62.03
2023-01-15T22:09:50.491Z,61.97
2023-01-15T22:12:19.671Z,62.23
2023-01-15T22:14:49.480Z,61.63
2023-01-15T22:17:18.599Z,59.23
2023-01-15T22:19:47.599Z,62.23
2023-01-15T22:22:18.509Z,62.47
2023-01-15T22:24:47.395Z,61.30
2023-01-15T22:27:19.131Z,62.23
2023-01-15T22:29:48.133Z,60.47
2023-01-15T22:32:18.261Z,62.40
2023-01-15T22:34:49.114Z,61.63
2023-01-15T22:37:19.872Z,62.23
2023-01-15T22:39:50.273Z,64.57
2023-01-15T22:42:33.008Z,64.00
2023-01-15T22:45:04.385Z,65.87
2023-01-15T22:47:33.425Z,65.37
2023-01-15T22:50:02.270Z,65.60
2023-01-15T22:52:32.690Z,69.77
2023-01-15T22:55:01.638Z,68.07
2023-01-15T22:57:31.412Z,66.80
2023-01-15T23:00:00.489Z,67.03
2023-01-15T23:03:05.166Z,67.07
2023-01-15T23:05:39.097Z,65.60
2023-01-15T23:08:09.877Z,65.43
2023-01-15T23:10:38.904Z,65.13
2023-01-15T23:13:07.751Z,66.33
2023-01-15T23:15:36.661Z,64.43
2023-01-15T23:18:05.967Z,65.40
2023-01-15T23:20:34.874Z,65.23
2023-01-15T23:23:03.959Z,67.07
2023-01-15T23:25:34.355Z,64.87
2023-01-15T23:28:03.291Z,65.23
2023-01-15T23:30:32.455Z,66.43
2023-01-15T23:33:01.557Z,63.97
2023-01-15T23:35:30.676Z,84.70
2023-01-15T23:37:59.698Z,87.50
2023-01-15T23:40:28.690Z,91.57
2023-01-15T23:43:16.724Z,92.50
2023-01-15T23:46:02.969Z,83.37
2023-01-15T23:48:32.119Z,79.67
2023-01-15T23:51:01.078Z,78.73
2023-01-15T23:53:30.100Z,70.53
2023-01-15T23:55:59.617Z,68.63
2023-01-15T23:58:30.364Z,68.40
